Time;durP1;ratioP1;P1;durP2;ratioP2;P2;SDS_P1;SDS_P2;PMS_P1;PMS_P2;Temp;Humidity;BMP_temperature;BMP_pressure;BME280_temperature;BME280_humidity;BME280_pressure;Samples;Min_cycle;Max_cycle;Signal;HPM_P1;HPM_P2
2022/04/16 00:01:37;;;;;;;15.10;10.80;;;;;;;12.22;62.31;99108.41;109446;1274;22451;-61
2022/04/16 00:04:08;;;;;;;15.30;10.60;;;;;;;12.20;62.12;99115.02;109513;1274;22425;-60
2022/04/16 00:06:36;;;;;;;16.90;11.70;;;;;;;12.18;62.47;99118.70;109526;1274;22514;-61
2022/04/16 00:09:04;;;;;;;14.90;10.70;;;;;;;12.17;62.26;99119.08;109516;1274;22401;-60
2022/04/16 00:11:32;;;;;;;14.20;10.30;;;;;;;12.15;62.54;99118.25;109459;1274;23347;-60
2022/04/16 00:14:03;;;;;;;19.90;11.00;;;;;;;12.13;62.65;99116.45;109482;1274;22516;-60
2022/04/16 00:16:32;;;;;;;12.90;9.80;;;;;;;12.11;62.41;99123.54;109545;1274;22565;-60
2022/04/16 00:19:00;;;;;;;12.90;10.00;;;;;;;12.08;62.51;99129.92;109471;1274;22893;-60
2022/04/16 00:21:28;;;;;;;15.40;9.50;;;;;;;12.06;62.66;99132.27;109526;1274;22445;-61
2022/04/16 00:23:57;;;;;;;14.20;10.40;;;;;;;12.04;63.12;99141.23;109497;1274;22367;-61
2022/04/16 00:26:25;;;;;;;16.00;9.40;;;;;;;12.00;63.33;99128.79;109498;1274;24116;-61
2022/04/16 00:28:54;;;;;;;15.10;9.80;;;;;;;11.96;63.35;99128.48;109530;1274;23128;-61
2022/04/16 00:31:22;;;;;;;13.80;9.50;;;;;;;11.92;63.64;99128.33;109507;1274;23037;-60
2022/04/16 00:33:50;;;;;;;15.90;10.10;;;;;;;11.89;63.79;99129.64;109513;1274;22259;-61
2022/04/16 00:36:19;;;;;;;17.80;9.90;;;;;;;11.84;63.89;99136.62;109516;1274;22440;-60
2022/04/16 00:38:47;;;;;;;19.90;10.50;;;;;;;11.81;64.22;99121.25;109533;1273;23054;-60
2022/04/16 00:41:17;;;;;;;14.40;9.20;;;;;;;11.77;64.24;99120.65;109525;1273;22456;-61
2022/04/16 00:43:45;;;;;;;13.40;9.30;;;;;;;11.75;64.37;99133.45;109395;1276;22578;-61
2022/04/16 00:46:13;;;;;;;16.80;9.30;;;;;;;11.73;64.48;99155.92;109415;1274;22425;-60
2022/04/16 00:48:43;;;;;;;14.50;9.70;;;;;;;11.69;64.67;99148.90;109439;1274;22388;-61
2022/04/16 00:51:30;;;;;;;14.60;9.20;;;;;;;11.65;65.00;99130.20;109398;1276;22415;-61
2022/04/16 00:53:58;;;;;;;14.20;9.10;;;;;;;11.63;65.12;99117.54;109569;1273;22388;-61
2022/04/16 00:56:26;;;;;;;17.90;10.70;;;;;;;11.60;65.24;99116.27;109495;1274;23167;-61
2022/04/16 00:58:54;;;;;;;18.80;10.70;;;;;;;11.55;65.21;99114.36;109435;1274;22403;-60
2022/04/16 01:01:22;;;;;;;19.70;9.70;;;;;;;11.51;65.45;99130.53;109111;1278;22469;-61
2022/04/16 01:03:57;;;;;;;14.10;8.60;;;;;;;11.48;65.51;99154.31;109382;1276;22445;-61
2022/04/16 01:06:37;;;;;;;14.30;9.60;;;;;;;11.45;65.78;99156.27;109348;1276;22387;-60
2022/04/16 01:09:06;;;;;;;16.90;10.20;;;;;;;11.42;66.21;99149.83;109378;1276;22390;-60
2022/04/16 01:11:34;;;;;;;15.80;10.40;;;;;;;11.38;66.36;99155.52;109351;1276;22421;-60
2022/04/16 01:14:02;;;;;;;16.70;10.20;;;;;;;11.34;66.76;99151.75;109394;1276;22461;-60
2022/04/16 01:16:39;;;;;;;14.70;9.20;;;;;;;11.31;66.86;99136.52;109432;1277;22526;-60
2022/04/16 01:19:10;;;;;;;17.20;9.10;;;;;;;11.27;67.07;99113.13;109356;1277;22483;-60
2022/04/16 01:21:58;;;;;;;16.20;10.00;;;;;;;11.22;67.53;99101.95;109381;1275;22407;-60
2022/04/16 01:24:26;;;;;;;13.60;8.90;;;;;;;11.16;67.44;99110.48;109383;1276;22953;-60
2022/04/16 01:26:58;;;;;;;16.40;9.50;;;;;;;11.12;67.57;99105.25;106184;1277;22665;-59
2022/04/16 01:29:27;;;;;;;16.20;10.40;;;;;;;11.08;67.82;99140.54;105138;1278;25131;-59
2022/04/16 01:31:56;;;;;;;15.90;9.40;;;;;;;11.05;67.94;99157.16;109307;1276;22422;-60
2022/04/16 01:34:25;;;;;;;15.10;9.40;;;;;;;11.02;67.99;99149.52;109364;1276;22394;-60
2022/04/16 01:37:02;;;;;;;17.10;9.50;;;;;;;10.98;68.43;99150.65;109352;1277;22404;-60
2022/04/16 01:39:31;;;;;;;13.50;9.50;;;;;;;10.95;68.31;99153.21;109373;1275;22366;-60
2022/04/16 01:41:59;;;;;;;17.20;10.20;;;;;;;10.93;68.47;99154.91;109366;1276;22511;-59
2022/04/16 01:44:29;;;;;;;15.20;9.60;;;;;;;10.92;68.48;99145.27;109378;1276;22583;-60
2022/04/16 01:46:57;;;;;;;16.90;10.00;;;;;;;10.92;68.49;99137.63;109343;1276;22571;-60
2022/04/16 01:49:26;;;;;;;15.30;10.30;;;;;;;10.92;68.66;99135.06;109374;1276;22393;-60
2022/04/16 01:51:57;;;;;;;18.10;9.90;;;;;;;10.90;68.91;99128.52;109359;1277;22388;-60
2022/04/16 01:54:25;;;;;;;16.00;9.60;;;;;;;10.89;69.09;99134.13;109357;1276;22293;-60
2022/04/16 01:56:53;;;;;;;16.50;9.50;;;;;;;10.88;68.95;99139.09;109379;1276;22263;-60
2022/04/16 01:59:21;;;;;;;15.20;10.00;;;;;;;10.87;69.27;99144.58;109363;1276;23292;-60
2022/04/16 02:01:49;;;;;;;18.40;10.50;;;;;;;10.86;69.15;99145.29;109372;1276;22461;-60
2022/04/16 02:04:17;;;;;;;17.10;9.60;;;;;;;10.84;69.49;99149.25;109411;1276;23218;-60
2022/04/16 02:07:04;;;;;;;17.40;10.80;;;;;;;10.82;69.83;99140.32;106053;1277;24398;-59
2022/04/16 02:09:32;;;;;;;14.30;10.50;;;;;;;10.79;70.00;99148.23;105092;1277;24398;-59
2022/04/16 02:12:01;;;;;;;17.10;10.60;;;;;;;10.78;70.17;99157.27;109349;1276;23284;-60
2022/04/16 02:14:29;;;;;;;16.60;10.50;;;;;;;10.75;70.30;99161.12;109374;1276;22409;-60
2022/04/16 02:17:08;;;;;;;14.70;10.90;;;;;;;10.73;70.82;99159.04;109406;1277;22436;-60
2022/04/16 02:19:39;;;;;;;17.70;12.00;;;;;;;10.68;71.15;99162.73;109422;1276;22398;-60
2022/04/16 02:22:40;;;;;;;15.90;11.20;;;;;;;10.63;71.07;99154.48;109386;1276;22438;-60
2022/04/16 02:25:28;;;;;;;18.30;10.80;;;;;;;10.63;71.27;99156.56;109412;1276;22377;-60
2022/04/16 02:27:58;;;;;;;18.70;11.30;;;;;;;10.62;71.47;99155.46;109401;1276;22378;-60
2022/04/16 02:30:30;;;;;;;19.40;11.10;;;;;;;10.62;71.52;99161.63;109411;1276;22766;-60
2022/04/16 02:32:58;;;;;;;15.50;10.70;;;;;;;10.60;71.71;99163.63;109357;1276;22391;-60
2022/04/16 02:35:26;;;;;;;23.60;11.40;;;;;;;10.59;71.78;99161.39;109429;1276;23214;-60
2022/04/16 02:37:55;;;;;;;17.10;12.10;;;;;;;10.58;72.05;99147.83;109305;1277;22399;-60
2022/04/16 02:40:24;;;;;;;17.50;13.00;;;;;;;10.55;72.08;99133.52;109410;1276;23125;-60
2022/04/16 02:42:52;;;;;;;18.20;11.70;;;;;;;10.54;72.19;99129.92;109395;1275;22418;-60
2022/04/16 02:48:07;;;;;;;20.80;12.30;;;;;;;10.51;72.13;99165.63;109404;1276;22399;-60
2022/04/16 02:50:35;;;;;;;28.40;13.70;;;;;;;10.51;72.35;99168.13;109418;1276;22387;-60
2022/04/16 02:53:03;;;;;;;18.70;12.10;;;;;;;10.49;72.73;99170.02;109417;1276;22393;-60
2022/04/16 02:55:31;;;;;;;16.50;12.50;;;;;;;10.47;72.84;99168.86;109421;1276;22410;-60
2022/04/16 02:57:59;;;;;;;18.40;13.20;;;;;;;10.45;72.84;99170.92;109391;1276;22262;-59
2022/04/16 03:00:27;;;;;;;18.20;13.00;;;;;;;10.44;72.81;99174.73;109410;1276;22464;-60
2022/04/16 03:02:55;;;;;;;18.10;13.20;;;;;;;10.43;73.05;99174.51;109526;1274;22503;-60
2022/04/16 03:05:23;;;;;;;18.40;13.00;;;;;;;10.43;72.95;99169.93;109151;1274;22545;-63
2022/04/16 03:07:51;;;;;;;20.30;12.60;;;;;;;10.42;73.10;99172.48;105159;1274;22703;-63
2022/04/16 03:10:39;;;;;;;;;;;;;;;10.39;73.20;99172.30;105359;1271;23957;-63
2022/04/16 03:13:08;;;;;;;22.30;13.90;;;;;;;10.36;73.41;99175.95;109706;1271;23191;-63
2022/04/16 03:18:42;;;;;;;21.40;12.60;;;;;;;10.26;73.71;99176.33;109643;1272;22463;-64
2022/04/16 03:21:11;;;;;;;15.00;11.40;;;;;;;10.25;73.84;99180.77;109728;1271;22535;-64
2022/04/16 03:23:39;;;;;;;16.00;12.50;;;;;;;10.24;73.76;99185.30;109705;1271;22403;-64
2022/04/16 03:26:07;;;;;;;22.80;12.90;;;;;;;10.24;73.88;99186.06;109602;1272;22395;-64
2022/04/16 03:28:38;;;;;;;18.50;11.90;;;;;;;10.24;73.82;99186.55;109723;1271;22500;-64
2022/04/16 03:31:10;;;;;;;17.40;12.40;;;;;;;10.24;73.87;99189.34;109677;1271;22426;-64
2022/04/16 03:33:38;;;;;;;21.60;12.90;;;;;;;10.24;74.09;99189.44;109664;1270;22409;-64
2022/04/16 03:36:07;;;;;;;18.20;12.80;;;;;;;10.24;73.88;99189.21;109681;1271;22403;-59
2022/04/16 03:38:36;;;;;;;20.50;13.00;;;;;;;10.25;74.05;99194.23;109727;1271;22396;-60
2022/04/16 03:41:05;;;;;;;22.80;13.10;;;;;;;10.25;73.93;99189.44;109733;1271;23138;-60
2022/04/16 03:43:33;;;;;;;18.10;12.50;;;;;;;10.25;74.15;99192.70;109717;1271;22385;-60
2022/04/16 03:46:22;;;;;;;19.30;13.10;;;;;;;10.23;74.08;99189.06;109742;1271;22487;-60
2022/04/16 03:48:51;;;;;;;17.00;13.40;;;;;;;10.22;74.07;99190.92;109627;1272;22488;-60
2022/04/16 03:51:20;;;;;;;17.80;13.10;;;;;;;10.20;74.27;99189.59;109699;1271;22264;-60
2022/04/16 03:53:49;;;;;;;17.60;12.40;;;;;;;10.19;74.41;99187.08;109734;1269;22365;-60
2022/04/16 04:01:50;;;;;;;19.20;13.70;;;;;;;10.08;74.91;99188.08;109630;1272;22424;-60
2022/04/16 04:04:18;;;;;;;20.90;13.40;;;;;;;10.06;75.06;99193.51;109622;1272;22619;-60
2022/04/16 04:07:06;;;;;;;20.80;13.10;;;;;;;10.03;75.21;99200.01;109726;1272;22387;-60
2022/04/16 04:09:38;;;;;;;23.60;14.60;;;;;;;9.99;75.49;99200.63;109626;1272;22456;-60
2022/04/16 04:12:21;;;;;;;18.00;13.00;;;;;;;9.95;75.54;99204.65;109623;1272;22422;-60
2022/04/16 04:14:49;;;;;;;17.00;14.20;;;;;;;9.94;75.68;99202.09;109629;1272;22472;-60
2022/04/16 04:17:37;;;;;;;21.90;13.90;;;;;;;9.95;75.78;99201.11;105335;1274;25364;-59
2022/04/16 04:20:06;;;;;;;20.30;15.10;;;;;;;9.95;75.88;99203.89;105276;1273;24987;-59
2022/04/16 04:22:53;;;;;;;21.70;15.10;;;;;;;9.93;75.89;99212.96;105269;1273;22557;-59
2022/04/16 04:25:22;;;;;;;20.50;15.10;;;;;;;9.90;76.06;99215.92;105187;1273;23989;-59
2022/04/16 04:27:50;;;;;;;21.30;15.40;;;;;;;9.83;76.25;99216.24;109559;1273;23418;-60
2022/04/16 04:30:38;;;;;;;23.00;14.30;;;;;;;9.79;76.31;99217.05;109591;1272;23243;-60
2022/04/16 04:33:06;;;;;;;20.60;14.90;;;;;;;9.78;76.47;99216.33;109576;1273;22253;-60
2022/04/16 04:35:35;;;;;;;19.00;14.90;;;;;;;9.78;76.54;99216.16;109617;1272;23522;-60
2022/04/16 04:38:03;;;;;;;23.70;15.80;;;;;;;9.79;76.69;99216.34;109603;1272;22322;-60
2022/04/16 04:40:34;;;;;;;22.90;16.80;;;;;;;9.79;76.65;99217.64;109593;1273;22397;-60
2022/04/16 04:43:02;;;;;;;19.70;14.50;;;;;;;9.77;76.77;99217.90;109608;1273;22526;-61
2022/04/16 04:45:31;;;;;;;21.80;13.50;;;;;;;9.76;76.76;99214.62;109638;1272;22971;-61
2022/04/16 04:47:59;;;;;;;21.90;15.70;;;;;;;9.76;76.78;99215.71;109586;1273;22496;-60
2022/04/16 04:50:29;;;;;;;18.20;14.50;;;;;;;9.76;76.58;99214.02;109581;1273;22403;-60
2022/04/16 04:52:57;;;;;;;20.10;15.60;;;;;;;9.76;76.56;99215.77;109587;1273;23665;-60
2022/04/16 04:55:25;;;;;;;20.60;13.90;;;;;;;9.79;76.59;99213.02;109628;1272;22441;-60
2022/04/16 04:57:54;;;;;;;21.90;14.70;;;;;;;9.82;76.57;99211.67;109600;1272;22374;-60
2022/04/16 05:00:22;;;;;;;18.30;15.30;;;;;;;9.84;76.53;99207.48;109719;1272;22408;-60
2022/04/16 05:02:51;;;;;;;20.30;14.90;;;;;;;9.86;76.55;99208.33;109668;1271;22497;-60
2022/04/16 05:05:21;;;;;;;22.90;15.10;;;;;;;9.88;76.43;99204.31;109635;1272;22409;-60
2022/04/16 05:07:49;;;;;;;17.40;13.90;;;;;;;9.92;76.32;99203.91;109567;1273;23416;-60
2022/04/16 05:10:18;;;;;;;19.80;14.20;;;;;;;9.96;76.45;99200.84;109720;1270;22418;-60
2022/04/16 05:12:46;;;;;;;21.60;14.10;;;;;;;10.02;76.21;99198.91;109540;1272;22581;-60
2022/04/16 05:15:15;;;;;;;16.70;14.00;;;;;;;10.06;75.94;99196.66;109736;1271;22404;-60
2022/04/16 05:17:44;;;;;;;19.20;14.60;;;;;;;10.08;76.03;99192.81;109763;1271;22472;-60
2022/04/16 05:20:31;;;;;;;21.00;14.00;;;;;;;10.13;75.74;99191.08;109672;1271;22446;-60
2022/04/16 05:22:59;;;;;;;20.90;14.90;;;;;;;10.18;75.77;99190.88;109599;1271;22554;-60
2022/04/16 05:25:27;;;;;;;19.30;14.50;;;;;;;10.24;75.46;99190.09;109693;1271;23105;-61
2022/04/16 05:27:56;;;;;;;18.70;14.40;;;;;;;10.32;75.38;99192.27;109680;1271;22268;-60
2022/04/16 05:30:31;;;;;;;21.00;13.90;;;;;;;10.40;75.02;99187.30;109752;1271;23494;-61
2022/04/16 05:33:05;;;;;;;19.90;15.20;;;;;;;10.48;74.76;99186.46;109700;1271;22473;-60
2022/04/16 05:35:33;;;;;;;22.30;15.60;;;;;;;10.54;74.46;99192.26;109660;1271;22533;-60
2022/04/16 05:38:01;;;;;;;19.40;14.50;;;;;;;10.57;74.20;99191.40;109698;1271;22260;-60
2022/04/16 05:40:29;;;;;;;18.00;15.00;;;;;;;10.57;74.02;99191.34;109714;1269;23790;-60
2022/04/16 05:42:58;;;;;;;21.80;15.10;;;;;;;10.59;74.18;99188.36;109740;1271;22398;-60
2022/04/16 05:45:26;;;;;;;19.30;15.60;;;;;;;10.67;74.48;99188.17;109724;1271;22432;-61
2022/04/16 05:47:54;;;;;;;20.00;14.60;;;;;;;10.80;74.10;99192.59;109696;1271;22431;-60
2022/04/16 05:50:22;;;;;;;20.40;14.40;;;;;;;10.93;73.82;99189.14;109653;1272;22440;-61
2022/04/16 05:52:52;;;;;;;20.60;15.30;;;;;;;11.04;73.31;99183.33;109683;1271;22375;-61
2022/04/16 05:55:21;;;;;;;23.90;15.60;;;;;;;11.15;73.02;99179.98;109629;1272;22434;-61
2022/04/16 05:57:49;;;;;;;20.00;15.30;;;;;;;11.24;72.80;99181.95;109696;1271;22470;-61
2022/04/16 06:00:19;;;;;;;21.20;15.60;;;;;;;11.34;72.59;99176.89;109732;1269;22521;-61
2022/04/16 06:02:47;;;;;;;22.00;14.80;;;;;;;11.44;72.15;99180.66;109732;1271;22483;-61
2022/04/16 06:05:15;;;;;;;22.10;15.50;;;;;;;11.51;71.89;99186.41;109668;1269;22498;-61
2022/04/16 06:07:44;;;;;;;20.60;14.90;;;;;;;11.57;71.55;99187.27;109729;1271;23317;-61
2022/04/16 06:10:12;;;;;;;22.90;15.40;;;;;;;11.62;71.44;99183.35;109701;1271;22422;-61
2022/04/16 06:12:43;;;;;;;20.80;15.20;;;;;;;11.68;71.31;99186.08;109315;1272;405643;-61
2022/04/16 06:17:02;;;;;;;22.10;16.10;;;;;;;11.81;71.18;99188.45;102215;1309;546334;-59
2022/04/16 06:19:30;;;;;;;23.40;16.80;;;;;;;11.88;70.67;99192.91;104547;1284;24014;-60
2022/04/16 06:21:58;;;;;;;23.40;16.10;;;;;;;11.91;70.53;99192.91;108670;1283;23570;-60
2022/04/16 06:24:26;;;;;;;23.30;17.40;;;;;;;11.95;70.16;99195.00;108679;1283;22405;-60
2022/04/16 06:26:54;;;;;;;20.30;15.40;;;;;;;11.97;69.70;99196.79;108645;1283;23186;-60
2022/04/16 06:29:22;;;;;;;24.00;16.00;;;;;;;11.98;70.10;99194.10;108649;1284;23170;-61
2022/04/16 06:31:50;;;;;;;24.60;16.20;;;;;;;12.02;69.52;99194.52;109470;1274;179403;-60
2022/04/16 06:34:19;;;;;;;23.30;15.80;;;;;;;12.03;69.41;99194.38;109545;1274;22418;-61
2022/04/16 06:36:47;;;;;;;23.20;16.10;;;;;;;12.03;69.38;99193.16;109408;1277;22263;-60
2022/04/16 06:39:15;;;;;;;25.00;17.00;;;;;;;12.06;69.44;99195.90;109458;1274;22566;-61
2022/04/16 06:41:43;;;;;;;30.10;17.60;;;;;;;12.08;69.15;99195.90;109523;1274;22496;-60
2022/04/16 06:44:11;;;;;;;44.50;26.60;;;;;;;12.07;69.29;99190.33;109473;1276;22417;-60
2022/04/16 06:46:46;;;;;;;33.20;20.60;;;;;;;12.06;69.27;99192.95;109526;1276;22449;-60
2022/04/16 06:49:14;;;;;;;29.30;19.40;;;;;;;12.05;69.17;99195.63;109518;1274;23354;-60
2022/04/16 06:51:42;;;;;;;30.80;19.60;;;;;;;12.04;69.23;99198.35;109593;1274;22447;-60
2022/04/16 06:54:12;;;;;;;25.50;17.90;;;;;;;12.02;69.05;99204.41;109545;1274;22414;-60
2022/04/16 06:56:40;;;;;;;27.50;17.00;;;;;;;11.93;69.14;99205.20;106785;1276;22581;-60
2022/04/16 06:59:10;;;;;;;23.10;17.20;;;;;;;11.83;69.36;99206.30;109492;1274;23252;-61
2022/04/16 07:01:38;;;;;;;27.20;18.80;;;;;;;11.75;69.61;99210.04;109487;1277;22497;-61
2022/04/16 07:04:07;;;;;;;26.50;17.90;;;;;;;11.69;69.83;99211.23;109525;1274;22264;-61
2022/04/16 07:06:36;;;;;;;25.90;16.50;;;;;;;11.65;70.06;99212.17;109559;1274;23065;-61
2022/04/16 07:09:07;;;;;;;21.70;15.90;;;;;;;11.66;70.19;99210.52;109449;1274;22394;-61
2022/04/16 07:11:36;;;;;;;19.80;14.70;;;;;;;11.69;70.04;99212.76;109474;1275;22531;-60
2022/04/16 07:14:05;;;;;;;22.60;15.60;;;;;;;11.74;70.18;99212.64;109483;1274;22392;-60
2022/04/16 07:16:33;;;;;;;18.40;14.90;;;;;;;11.76;70.06;99214.91;109490;1277;22585;-60
2022/04/16 07:19:05;;;;;;;18.80;13.80;;;;;;;11.78;70.04;99220.55;109474;1275;22511;-61
2022/04/16 07:21:35;;;;;;;19.20;15.00;;;;;;;11.76;69.32;99218.84;109508;1274;23205;-61
2022/04/16 07:24:06;;;;;;;20.70;14.70;;;;;;;11.67;69.22;99221.21;109542;1274;22410;-61
2022/04/16 07:26:34;;;;;;;19.90;14.30;;;;;;;11.60;69.78;99220.13;106916;1277;23219;-60
2022/04/16 07:29:02;;;;;;;22.00;15.30;;;;;;;11.57;69.96;99220.06;105130;1274;24298;-59
2022/04/16 07:31:30;;;;;;;17.90;14.20;;;;;;;11.54;69.80;99219.63;109452;1276;23317;-60
2022/04/16 07:34:00;;;;;;;26.70;16.00;;;;;;;11.53;69.88;99222.59;109408;1277;23262;-60
2022/04/16 07:36:28;;;;;;;17.00;12.90;;;;;;;11.51;69.86;99222.52;109447;1276;23176;-60
2022/04/16 07:38:56;;;;;;;17.70;13.10;;;;;;;11.48;69.82;99222.73;109443;1275;22528;-60
2022/04/16 07:41:24;;;;;;;18.40;14.20;;;;;;;11.50;70.20;99223.78;109488;1274;23160;-60
2022/04/16 07:43:55;;;;;;;20.00;14.10;;;;;;;11.53;69.85;99225.46;109505;1274;22515;-60
2022/04/16 07:46:25;;;;;;;18.20;13.90;;;;;;;11.54;69.88;99228.50;109507;1277;23234;-60
2022/04/16 07:48:56;;;;;;;18.20;13.30;;;;;;;11.54;69.64;99229.66;109489;1276;22677;-60
2022/04/16 07:51:25;;;;;;;22.20;14.20;;;;;;;11.53;69.68;99230.55;109578;1274;22417;-60
2022/04/16 07:53:53;;;;;;;17.50;13.50;;;;;;;11.52;69.13;99226.61;109542;1274;23181;-60
2022/04/16 07:56:22;;;;;;;15.80;12.50;;;;;;;11.54;69.78;99231.03;109453;1276;22997;-60
2022/04/16 07:58:50;;;;;;;18.20;12.50;;;;;;;11.58;69.31;99231.85;109501;1274;22422;-60
2022/04/16 08:01:18;;;;;;;18.80;13.00;;;;;;;11.63;69.23;99231.80;109594;1274;22464;-60
2022/04/16 08:03:46;;;;;;;15.00;12.50;;;;;;;11.69;68.97;99233.00;109586;1274;22508;-60
2022/04/16 08:06:14;;;;;;;14.60;11.80;;;;;;;11.77;69.25;99227.25;109510;1274;22509;-60
2022/04/16 08:08:42;;;;;;;13.90;11.80;;;;;;;11.88;69.20;99230.80;109472;1275;22402;-60
2022/04/16 08:11:13;;;;;;;16.50;11.60;;;;;;;11.97;68.64;99224.30;109443;1274;23120;-60
2022/04/16 08:13:42;;;;;;;14.80;12.20;;;;;;;12.06;68.23;99227.20;109505;1274;23324;-60
2022/04/16 08:16:30;;;;;;;23.00;15.80;;;;;;;12.12;67.68;99232.59;109584;1274;22408;-60
2022/04/16 08:19:00;;;;;;;14.50;11.60;;;;;;;12.18;67.72;99235.41;109528;1274;23086;-61
2022/04/16 08:21:28;;;;;;;17.30;11.30;;;;;;;12.22;67.21;99237.13;109443;1274;22405;-60
2022/04/16 08:24:04;;;;;;;14.60;11.70;;;;;;;12.24;66.72;99237.23;109485;1275;22452;-60
2022/04/16 08:26:52;;;;;;;15.50;10.60;;;;;;;12.26;65.89;99240.75;106349;1277;22585;-64
2022/04/16 08:29:21;;;;;;;12.70;10.10;;;;;;;12.29;65.69;99240.20;105251;1271;23961;-63
2022/04/16 08:31:50;;;;;;;15.20;10.90;;;;;;;12.37;66.04;99236.65;105360;1271;23996;-63
2022/04/16 08:34:38;;;;;;;11.90;9.60;;;;;;;12.48;65.10;99231.48;105383;1271;24290;-62
2022/04/16 08:37:06;;;;;;;13.10;10.30;;;;;;;12.52;63.92;99233.34;105417;1274;24132;-62
2022/04/16 08:39:34;;;;;;;12.20;9.70;;;;;;;12.54;62.95;99231.80;105367;1274;23994;-63
2022/04/16 08:42:02;;;;;;;12.70;10.00;;;;;;;12.50;62.81;99227.77;105376;1274;25178;-63
2022/04/16 08:44:31;;;;;;;13.90;9.50;;;;;;;12.49;62.90;99225.91;105298;1271;25271;-63
2022/04/16 08:46:59;;;;;;;13.60;9.20;;;;;;;12.54;63.07;99227.48;105339;1271;24425;-63
2022/04/16 08:49:28;;;;;;;11.50;9.00;;;;;;;12.61;62.99;99218.48;109565;1271;23199;-64
2022/04/16 08:51:56;;;;;;;14.60;10.50;;;;;;;12.69;63.01;99220.91;109594;1273;22407;-64
2022/04/16 08:54:41;;;;;;;12.40;9.70;;;;;;;12.78;62.75;99223.07;109725;1273;22467;-63
2022/04/16 08:57:09;;;;;;;12.90;10.40;;;;;;;12.82;62.49;99223.23;109704;1271;22450;-60
2022/04/16 08:59:37;;;;;;;11.40;9.30;;;;;;;12.81;61.89;99229.09;109725;1270;22239;-59
2022/04/16 09:02:05;;;;;;;12.80;9.00;;;;;;;12.75;61.77;99224.44;109728;1270;22390;-59
2022/04/16 09:04:34;;;;;;;12.60;9.10;;;;;;;12.69;61.47;99224.36;109750;1271;22517;-59
2022/04/16 09:07:20;;;;;;;11.50;8.70;;;;;;;12.67;61.32;99224.27;109695;1271;22436;-59
2022/04/16 09:09:48;;;;;;;10.50;7.70;;;;;;;12.68;60.91;99225.26;109721;1271;22581;-60
2022/04/16 09:12:38;;;;;;;12.90;9.70;;;;;;;12.72;60.79;99219.86;109717;1271;23069;-60
2022/04/16 09:15:09;;;;;;;16.20;9.40;;;;;;;12.79;60.82;99220.06;109613;1272;22326;-60
2022/04/16 09:18:05;;;;;;;12.40;8.50;;;;;;;12.89;60.21;99218.59;109593;1272;22256;-60
2022/04/16 09:20:35;;;;;;;10.20;8.70;;;;;;;12.97;60.10;99209.26;109668;1270;22409;-60
2022/04/16 09:23:20;;;;;;;13.30;9.20;;;;;;;13.05;60.07;99219.71;109596;1272;22402;-60
2022/04/16 09:25:52;;;;;;;10.90;8.50;;;;;;;13.13;59.26;99223.56;109687;1273;22383;-60
2022/04/16 09:28:21;;;;;;;10.10;8.30;;;;;;;13.14;59.43;99232.58;109577;1273;22398;-60
2022/04/16 09:30:53;;;;;;;10.80;7.70;;;;;;;13.09;59.46;99241.09;109596;1274;22498;-61
2022/04/16 09:33:22;;;;;;;10.40;7.10;;;;;;;12.98;62.24;99256.99;109671;1271;23540;-60
2022/04/16 09:35:57;;;;;;;9.90;7.00;;;;;;;12.60;64.00;99264.02;109618;1273;22438;-60
2022/04/16 09:38:27;;;;;;;9.90;6.70;;;;;;;12.15;65.63;99276.55;109629;1274;22483;-61
2022/04/16 09:41:02;;;;;;;12.20;6.10;;;;;;;11.72;67.18;99278.92;109593;1273;23275;-60
2022/04/16 09:43:35;;;;;;;9.20;6.60;;;;;;;11.41;68.26;99280.61;109422;1274;22446;-60
2022/04/16 09:46:08;;;;;;;8.30;6.10;;;;;;;11.14;69.32;99288.39;109538;1273;23144;-61
2022/04/16 09:48:37;;;;;;;8.70;5.40;;;;;;;10.94;70.08;99298.45;109608;1272;22433;-61
2022/04/16 09:51:05;;;;;;;7.60;5.50;;;;;;;10.80;70.65;99309.33;109689;1273;22507;-61
2022/04/16 09:53:36;;;;;;;8.70;5.70;;;;;;;10.65;71.25;99316.38;109625;1273;22632;-61
2022/04/16 09:56:06;;;;;;;10.30;5.80;;;;;;;10.48;71.69;99324.23;109590;1274;22644;-61
2022/04/16 09:58:36;;;;;;;8.10;5.40;;;;;;;10.29;72.22;99335.27;109538;1274;22501;-61
2022/04/16 10:01:04;;;;;;;9.50;5.50;;;;;;;10.09;73.00;99340.46;109626;1273;23120;-61
2022/04/16 10:03:32;;;;;;;8.90;5.50;;;;;;;9.91;73.63;99341.01;109624;1273;22428;-61
2022/04/16 10:06:01;;;;;;;11.00;6.00;;;;;;;9.73;74.09;99341.38;108128;1273;22884;-60
2022/04/16 10:08:31;;;;;;;8.00;5.80;;;;;;;9.54;74.54;99342.65;105211;1274;24047;-60
2022/04/16 10:11:03;;;;;;;8.30;5.00;;;;;;;9.40;74.98;99341.13;109560;1273;22443;-61
2022/04/16 10:13:37;;;;;;;8.70;5.10;;;;;;;9.28;75.55;99347.13;109565;1274;23145;-61
2022/04/16 10:16:39;;;;;;;17.90;8.10;;;;;;;9.16;76.08;99356.08;109613;1273;22436;-61
2022/04/16 10:19:16;;;;;;;13.40;7.90;;;;;;;9.06;76.49;99361.69;109459;1274;23404;-61
2022/04/16 10:21:44;;;;;;;14.80;8.60;;;;;;;8.97;76.77;99368.02;109600;1274;22611;-61
2022/04/16 10:24:32;;;;;;;16.30;8.60;;;;;;;8.88;77.26;99371.88;109601;1273;22479;-61
2022/04/16 10:27:04;;;;;;;15.60;8.20;;;;;;;8.76;77.41;99371.08;109527;1273;22524;-61
2022/04/16 10:29:36;;;;;;;14.90;7.20;;;;;;;8.65;77.73;99376.94;109541;1274;22462;-61
2022/04/16 10:32:16;;;;;;;15.10;6.20;;;;;;;8.57;77.90;99378.89;109558;1273;22378;-61
2022/04/16 10:34:44;;;;;;;13.50;6.70;;;;;;;8.48;78.14;99383.90;109568;1273;22582;-60
2022/04/16 10:37:25;;;;;;;19.10;9.70;;;;;;;8.38;78.42;99390.41;105926;1274;25497;-63
2022/04/16 10:39:53;;;;;;;20.80;11.50;;;;;;;8.30;78.40;99390.92;109608;1273;23311;-64
2022/04/16 10:42:32;;;;;;;28.50;15.70;;;;;;;8.25;78.52;99393.24;109587;1273;22340;-64
2022/04/16 10:45:20;;;;;;;17.50;10.60;;;;;;;8.20;78.66;99401.55;109627;1272;22451;-64
2022/04/16 10:47:54;;;;;;;6.40;4.30;;;;;;;8.19;78.55;99406.63;109607;1273;23276;-64
2022/04/16 10:50:23;;;;;;;3.70;2.20;;;;;;;8.16;78.13;99413.46;109522;1273;22422;-64
2022/04/16 10:52:55;;;;;;;3.70;1.90;;;;;;;8.11;77.86;99414.19;109612;1273;22506;-64
2022/04/16 10:55:30;;;;;;;15.60;7.50;;;;;;;8.06;77.86;99419.91;109626;1272;22435;-64
2022/04/16 10:58:03;;;;;;;12.20;7.80;;;;;;;8.01;78.37;99421.45;109593;1272;22449;-64
2022/04/16 11:00:35;;;;;;;9.70;6.50;;;;;;;7.99;78.69;99426.98;109673;1272;22421;-64
2022/04/16 11:03:11;;;;;;;6.60;3.50;;;;;;;7.93;79.24;99429.60;109619;1273;22417;-64
2022/04/16 11:05:42;;;;;;;2.60;1.80;;;;;;;7.86;79.73;99437.39;108789;1273;25190;-64
2022/04/16 11:08:13;;;;;;;4.70;2.00;;;;;;;7.79;79.81;99442.84;105245;1273;23945;-63
2022/04/16 11:10:41;;;;;;;6.60;3.30;;;;;;;7.70;79.84;99443.48;109476;1274;22493;-64
2022/04/16 11:13:16;;;;;;;3.60;1.60;;;;;;;7.56;80.46;99445.09;109534;1273;22386;-64
2022/04/16 11:15:44;;;;;;;5.10;1.80;;;;;;;7.43;80.67;99449.15;109467;1274;22489;-64
2022/04/16 11:18:43;;;;;;;5.70;2.20;;;;;;;7.26;80.65;99451.36;109453;1273;23157;-64
2022/04/16 11:21:21;;;;;;;5.10;1.70;;;;;;;7.17;80.88;99453.59;109616;1274;22526;-64
2022/04/16 11:24:09;;;;;;;3.10;1.60;;;;;;;7.07;80.51;99455.43;109606;1271;22401;-64
2022/04/16 11:34:57;;;;;;;10.20;4.10;;;;;;;6.96;79.51;99451.16;109588;1273;22411;-64
2022/04/16 11:37:32;;;;;;;7.10;2.60;;;;;;;6.97;79.10;99457.86;109560;1273;22451;-64
2022/04/16 11:40:15;;;;;;;8.40;4.10;;;;;;;6.97;78.57;99455.73;107593;1273;26740;-60
2022/04/16 11:42:44;;;;;;;11.30;3.40;;;;;;;6.98;78.36;99459.46;109551;1273;23282;-61
2022/04/16 11:45:15;;;;;;;6.00;2.60;;;;;;;7.00;78.31;99467.69;109623;1273;22482;-60
2022/04/16 11:47:43;;;;;;;18.40;8.50;;;;;;;7.01;77.70;99465.27;109609;1272;22435;-61
2022/04/16 11:50:13;;;;;;;12.20;6.30;;;;;;;7.01;77.95;99470.63;109646;1273;23388;-61
2022/04/16 11:52:41;;;;;;;6.10;2.40;;;;;;;7.03;78.56;99467.31;109597;1271;22440;-61
2022/04/16 11:55:17;;;;;;;11.30;5.10;;;;;;;7.03;78.78;99474.68;109509;1274;22487;-61